sensor_id;sensor_type;location;lat;lon;timestamp;pressure;altitude;pressure_sealevel;temperature;humidity
11676;BME280;5894;42.768;23.404;2023-05-03T00:01:29;95994.34;;;13.07;53.71
11676;BME280;5894;42.768;23.404;2023-05-03T00:03:56;96002.72;;;13.00;54.21
11676;BME280;5894;42.768;23.404;2023-05-03T00:06:23;96000.88;;;13.09;54.99
11676;BME280;5894;42.768;23.404;2023-05-03T00:08:50;95987.00;;;13.04;54.15
11676;BME280;5894;42.768;23.404;2023-05-03T00:11:17;95992.31;;;13.12;54.47
11676;BME280;5894;42.768;23.404;2023-05-03T00:13:44;95990.63;;;13.08;54.21
11676;BME280;5894;42.768;23.404;2023-05-03T00:16:13;95988.25;;;12.98;53.73
11676;BME280;5894;42.768;23.404;2023-05-03T00:18:40;95988.69;;;13.00;54.38
11676;BME280;5894;42.768;23.404;2023-05-03T00:21:06;95987.91;;;12.99;56.69
11676;BME280;5894;42.768;23.404;2023-05-03T00:23:33;95992.16;;;13.09;56.21
11676;BME280;5894;42.768;23.404;2023-05-03T00:26:00;95982.50;;;13.13;55.94
11676;BME280;5894;42.768;23.404;2023-05-03T00:28:27;95981.94;;;13.16;57.31
11676;BME280;5894;42.768;23.404;2023-05-03T00:30:54;95981.56;;;13.09;55.27
11676;BME280;5894;42.768;23.404;2023-05-03T00:33:23;95983.41;;;13.00;55.03
11676;BME280;5894;42.768;23.404;2023-05-03T00:35:50;95985.53;;;12.89;56.34
11676;BME280;5894;42.768;23.404;2023-05-03T00:38:17;95977.56;;;12.80;57.94
11676;BME280;5894;42.768;23.404;2023-05-03T00:40:44;95891.38;;;12.26;57.13
11676;BME280;5894;42.768;23.404;2023-05-03T00:43:11;95988.31;;;12.84;57.99
11676;BME280;5894;42.768;23.404;2023-05-03T00:45:39;95973.19;;;12.76;57.65
11676;BME280;5894;42.768;23.404;2023-05-03T00:48:06;95995.75;;;12.73;57.75
11676;BME280;5894;42.768;23.404;2023-05-03T00:50:35;95985.75;;;12.70;58.58
11676;BME280;5894;42.768;23.404;2023-05-03T00:53:03;95994.00;;;12.69;58.66
11676;BME280;5894;42.768;23.404;2023-05-03T00:55:30;95978.88;;;12.61;59.12
11676;BME280;5894;42.768;23.404;2023-05-03T00:57:58;95993.22;;;12.68;57.93
11676;BME280;5894;42.768;23.404;2023-05-03T01:00:25;95984.16;;;12.61;58.13
11676;BME280;5894;42.768;23.404;2023-05-03T01:02:53;95977.59;;;12.58;58.25
11676;BME280;5894;42.768;23.404;2023-05-03T01:05:20;95981.22;;;12.62;59.37
11676;BME280;5894;42.768;23.404;2023-05-03T01:07:58;95985.72;;;12.62;59.54
11676;BME280;5894;42.768;23.404;2023-05-03T01:10:34;95978.75;;;12.66;61.28
11676;BME280;5894;42.768;23.404;2023-05-03T01:13:09;95972.59;;;12.57;59.98
11676;BME280;5894;42.768;23.404;2023-05-03T01:15:45;95971.53;;;12.58;60.13
11676;BME280;5894;42.768;23.404;2023-05-03T01:18:19;95965.13;;;12.50;62.18
11676;BME280;5894;42.768;23.404;2023-05-03T01:20:48;95951.28;;;12.53;61.82
11676;BME280;5894;42.768;23.404;2023-05-03T01:23:27;95924.63;;;12.41;62.45
11676;BME280;5894;42.768;23.404;2023-05-03T01:25:57;95953.38;;;12.65;62.54
11676;BME280;5894;42.768;23.404;2023-05-03T01:28:24;95948.91;;;12.74;62.91
11676;BME280;5894;42.768;23.404;2023-05-03T01:30:51;95937.94;;;12.67;61.47
11676;BME280;5894;42.768;23.404;2023-05-03T01:33:25;95945.50;;;12.82;61.46
11676;BME280;5894;42.768;23.404;2023-05-03T01:36:03;95947.06;;;12.83;62.80
11676;BME280;5894;42.768;23.404;2023-05-03T01:38:36;95943.16;;;12.80;61.19
11676;BME280;5894;42.768;23.404;2023-05-03T01:41:09;95962.63;;;12.84;63.28
11676;BME280;5894;42.768;23.404;2023-05-03T01:43:37;95958.44;;;12.83;63.07
11676;BME280;5894;42.768;23.404;2023-05-03T01:46:06;95961.06;;;12.83;62.47
11676;BME280;5894;42.768;23.404;2023-05-03T01:48:33;95966.09;;;12.94;64.10
11676;BME280;5894;42.768;23.404;2023-05-03T01:51:01;95966.44;;;13.01;62.54
11676;BME280;5894;42.768;23.404;2023-05-03T01:53:29;95957.97;;;12.90;63.26
11676;BME280;5894;42.768;23.404;2023-05-03T01:55:56;95958.63;;;12.87;63.45
11676;BME280;5894;42.768;23.404;2023-05-03T01:58:24;95950.34;;;12.88;60.07
11676;BME280;5894;42.768;23.404;2023-05-03T02:00:52;95932.66;;;12.67;61.36
11676;BME280;5894;42.768;23.404;2023-05-03T02:03:19;95936.88;;;12.68;59.37
11676;BME280;5894;42.768;23.404;2023-05-03T02:05:47;95937.50;;;12.65;60.58
11676;BME280;5894;42.768;23.404;2023-05-03T02:08:14;95936.84;;;12.59;60.75
11676;BME280;5894;42.768;23.404;2023-05-03T02:10:42;95897.66;;;12.30;62.51
11676;BME280;5894;42.768;23.404;2023-05-03T02:13:09;95939.13;;;12.52;64.17
11676;BME280;5894;42.768;23.404;2023-05-03T02:15:38;95933.84;;;12.52;63.14
11676;BME280;5894;42.768;23.404;2023-05-03T02:18:05;95933.09;;;12.60;61.65
11676;BME280;5894;42.768;23.404;2023-05-03T02:20:33;95926.09;;;12.56;62.27
11676;BME280;5894;42.768;23.404;2023-05-03T02:23:02;95929.59;;;12.42;62.35
11676;BME280;5894;42.768;23.404;2023-05-03T02:25:29;95923.66;;;12.37;62.85
11676;BME280;5894;42.768;23.404;2023-05-03T02:27:56;95914.72;;;12.24;64.13
11676;BME280;5894;42.768;23.404;2023-05-03T02:30:23;95938.81;;;12.45;64.11
11676;BME280;5894;42.768;23.404;2023-05-03T02:32:52;95943.84;;;12.55;64.78
11676;BME280;5894;42.768;23.404;2023-05-03T02:35:20;95937.47;;;12.56;65.06
11676;BME280;5894;42.768;23.404;2023-05-03T02:37:47;95937.13;;;12.58;63.64
11676;BME280;5894;42.768;23.404;2023-05-03T02:40:14;95938.97;;;12.48;63.67
11676;BME280;5894;42.768;23.404;2023-05-03T02:42:44;95937.41;;;12.47;62.44
11676;BME280;5894;42.768;23.404;2023-05-03T02:45:15;95931.94;;;12.44;62.01
11676;BME280;5894;42.768;23.404;2023-05-03T02:47:42;95925.88;;;12.43;62.79
11676;BME280;5894;42.768;23.404;2023-05-03T02:50:11;95919.19;;;12.46;61.93
11676;BME280;5894;42.768;23.404;2023-05-03T02:52:40;95954.09;;;12.57;64.76
11676;BME280;5894;42.768;23.404;2023-05-03T02:55:08;95961.75;;;12.67;64.96
11676;BME280;5894;42.768;23.404;2023-05-03T02:57:36;95954.00;;;12.70;65.53
11676;BME280;5894;42.768;23.404;2023-05-03T03:00:06;95953.09;;;12.75;64.71
11676;BME280;5894;42.768;23.404;2023-05-03T03:02:34;95962.75;;;12.79;63.43
11676;BME280;5894;42.768;23.404;2023-05-03T03:05:01;95956.09;;;12.82;63.46
11676;BME280;5894;42.768;23.404;2023-05-03T03:07:30;95944.69;;;12.73;63.70
11676;BME280;5894;42.768;23.404;2023-05-03T03:09:57;95960.94;;;12.58;65.08
11676;BME280;5894;42.768;23.404;2023-05-03T03:12:24;95952.44;;;12.38;65.96
11676;BME280;5894;42.768;23.404;2023-05-03T03:14:53;95962.19;;;12.29;67.19
11676;BME280;5894;42.768;23.404;2023-05-03T03:17:20;95960.56;;;12.20;68.59
11676;BME280;5894;42.768;23.404;2023-05-03T03:19:48;95959.69;;;12.24;68.78
11676;BME280;5894;42.768;23.404;2023-05-03T03:22:14;95961.31;;;12.11;70.46
11676;BME280;5894;42.768;23.404;2023-05-03T03:24:43;95957.44;;;12.18;70.30
11676;BME280;5894;42.768;23.404;2023-05-03T03:27:10;95958.97;;;12.10;71.40
11676;BME280;5894;42.768;23.404;2023-05-03T03:29:37;95968.31;;;12.16;71.50
11676;BME280;5894;42.768;23.404;2023-05-03T03:32:05;95965.66;;;12.16;71.66
11676;BME280;5894;42.768;23.404;2023-05-03T03:34:32;95970.72;;;12.26;71.38
11676;BME280;5894;42.768;23.404;2023-05-03T03:37:00;95965.63;;;12.30;71.80
11676;BME280;5894;42.768;23.404;2023-05-03T03:39:29;95977.88;;;12.26;71.63
11676;BME280;5894;42.768;23.404;2023-05-03T03:41:57;95976.00;;;12.26;72.86
11676;BME280;5894;42.768;23.404;2023-05-03T03:44:24;95981.53;;;12.38;71.51
11676;BME280;5894;42.768;23.404;2023-05-03T03:46:51;95979.50;;;12.35;71.79
11676;BME280;5894;42.768;23.404;2023-05-03T03:49:18;95981.47;;;12.30;72.05
11676;BME280;5894;42.768;23.404;2023-05-03T03:51:45;95983.09;;;12.39;72.36
11676;BME280;5894;42.768;23.404;2023-05-03T03:54:12;95994.16;;;12.41;72.75
11676;BME280;5894;42.768;23.404;2023-05-03T03:56:44;95997.59;;;12.42;72.29
11676;BME280;5894;42.768;23.404;2023-05-03T03:59:12;95968.66;;;12.15;68.47
11676;BME280;5894;42.768;23.404;2023-05-03T04:01:40;95998.84;;;12.22;67.89
11676;BME280;5894;42.768;23.404;2023-05-03T04:04:07;96009.00;;;12.06;67.48
11676;BME280;5894;42.768;23.404;2023-05-03T04:06:34;96013.56;;;11.92;70.19
11676;BME280;5894;42.768;23.404;2023-05-03T04:09:06;96007.97;;;11.94;72.55
11676;BME280;5894;42.768;23.404;2023-05-03T04:11:34;95901.78;;;11.20;75.13
11676;BME280;5894;42.768;23.404;2023-05-03T04:14:03;96006.72;;;11.91;76.60
11676;BME280;5894;42.768;23.404;2023-05-03T04:16:32;96020.50;;;11.88;75.71
11676;BME280;5894;42.768;23.404;2023-05-03T04:19:01;96022.38;;;11.88;75.12
11676;BME280;5894;42.768;23.404;2023-05-03T04:21:30;96016.53;;;11.77;76.18
11676;BME280;5894;42.768;23.404;2023-05-03T04:23:58;96035.72;;;11.83;74.74
11676;BME280;5894;42.768;23.404;2023-05-03T04:26:31;96042.72;;;11.73;76.60
11676;BME280;5894;42.768;23.404;2023-05-03T04:29:20;96039.13;;;11.69;78.02
11676;BME280;5894;42.768;23.404;2023-05-03T04:31:49;96036.97;;;11.71;79.46
11676;BME280;5894;42.768;23.404;2023-05-03T04:34:16;96037.66;;;11.77;78.07
11676;BME280;5894;42.768;23.404;2023-05-03T04:36:46;96036.34;;;11.74;80.18
11676;BME280;5894;42.768;23.404;2023-05-03T04:39:15;96041.63;;;11.74;80.63
11676;BME280;5894;42.768;23.404;2023-05-03T04:41:44;96043.63;;;11.69;84.66
11676;BME280;5894;42.768;23.404;2023-05-03T04:44:12;96046.56;;;11.67;84.59
11676;BME280;5894;42.768;23.404;2023-05-03T04:46:40;96057.69;;;11.64;86.09
11676;BME280;5894;42.768;23.404;2023-05-03T04:49:09;96058.97;;;11.53;88.25
11676;BME280;5894;42.768;23.404;2023-05-03T04:51:36;96064.66;;;11.47;88.72
11676;BME280;5894;42.768;23.404;2023-05-03T04:54:04;96057.34;;;11.30;90.35
11676;BME280;5894;42.768;23.404;2023-05-03T04:56:31;96061.44;;;11.36;90.51
11676;BME280;5894;42.768;23.404;2023-05-03T04:59:09;96073.47;;;11.28;92.51
11676;BME280;5894;42.768;23.404;2023-05-03T05:01:37;96076.13;;;11.28;94.54
11676;BME280;5894;42.768;23.404;2023-05-03T05:04:06;96077.16;;;11.14;96.73
11676;BME280;5894;42.768;23.404;2023-05-03T05:06:43;96088.22;;;11.16;99.91
11676;BME280;5894;42.768;23.404;2023-05-03T05:09:23;96084.69;;;11.07;100.00
11676;BME280;5894;42.768;23.404;2023-05-03T05:11:53;96062.47;;;10.94;100.00
11676;BME280;5894;42.768;23.404;2023-05-03T05:14:21;96094.78;;;11.18;100.00
11676;BME280;5894;42.768;23.404;2023-05-03T05:16:48;96096.53;;;11.23;100.00
11676;BME280;5894;42.768;23.404;2023-05-03T05:19:15;96102.22;;;11.30;100.00
11676;BME280;5894;42.768;23.404;2023-05-03T05:21:44;96100.97;;;11.41;100.00
11676;BME280;5894;42.768;23.404;2023-05-03T05:24:11;96097.44;;;11.46;100.00
11676;BME280;5894;42.768;23.404;2023-05-03T05:26:40;96096.75;;;11.54;100.00
11676;BME280;5894;42.768;23.404;2023-05-03T05:29:09;96090.59;;;11.58;100.00
11676;BME280;5894;42.768;23.404;2023-05-03T05:31:36;96093.31;;;11.67;100.00
11676;BME280;5894;42.768;23.404;2023-05-03T05:34:05;96099.19;;;11.64;100.00
11676;BME280;5894;42.768;23.404;2023-05-03T05:36:33;96098.13;;;11.65;100.00
11676;BME280;5894;42.768;23.404;2023-05-03T05:39:02;96097.81;;;11.66;100.00
11676;BME280;5894;42.768;23.404;2023-05-03T05:41:32;96095.31;;;11.75;100.00
11676;BME280;5894;42.768;23.404;2023-05-03T05:43:59;96097.84;;;11.80;100.00
11676;BME280;5894;42.768;23.404;2023-05-03T05:46:28;96099.13;;;11.83;100.00
11676;BME280;5894;42.768;23.404;2023-05-03T05:48:55;96095.59;;;11.87;100.00
11676;BME280;5894;42.768;23.404;2023-05-03T05:51:23;96090.38;;;11.96;100.00
11676;BME280;5894;42.768;23.404;2023-05-03T05:53:50;96087.94;;;11.99;100.00
11676;BME280;5894;42.768;23.404;2023-05-03T05:56:20;96092.13;;;12.14;100.00
11676;BME280;5894;42.768;23.404;2023-05-03T05:58:49;96085.66;;;12.06;100.00
11676;BME280;5894;42.768;23.404;2023-05-03T06:01:16;96079.00;;;12.09;100.00
11676;BME280;5894;42.768;23.404;2023-05-03T06:03:43;96079.28;;;12.07;100.00
11676;BME280;5894;42.768;23.404;2023-05-03T06:06:11;96081.72;;;12.18;100.00
11676;BME280;5894;42.768;23.404;2023-05-03T06:08:38;96087.28;;;12.16;100.00
11676;BME280;5894;42.768;23.404;2023-05-03T06:11:05;96092.28;;;12.18;100.00
11676;BME280;5894;42.768;23.404;2023-05-03T06:13:33;96072.44;;;12.06;100.00
11676;BME280;5894;42.768;23.404;2023-05-03T06:16:05;96068.28;;;11.92;97.64
11676;BME280;5894;42.768;23.404;2023-05-03T06:18:33;96084.81;;;11.70;95.40
11676;BME280;5894;42.768;23.404;2023-05-03T06:21:00;96071.13;;;11.68;96.81
11676;BME280;5894;42.768;23.404;2023-05-03T06:23:28;96087.16;;;11.58;98.38
11676;BME280;5894;42.768;23.404;2023-05-03T06:25:57;96087.47;;;11.56;100.00
11676;BME280;5894;42.768;23.404;2023-05-03T06:28:25;96084.16;;;11.51;100.00
11676;BME280;5894;42.768;23.404;2023-05-03T06:30:56;96066.41;;;11.24;100.00
11676;BME280;5894;42.768;23.404;2023-05-03T06:33:23;96069.47;;;11.45;100.00
11676;BME280;5894;42.768;23.404;2023-05-03T06:35:51;96078.16;;;11.45;100.00
11676;BME280;5894;42.768;23.404;2023-05-03T06:38:18;96074.66;;;11.50;100.00
11676;BME280;5894;42.768;23.404;2023-05-03T06:40:46;96080.31;;;11.43;100.00
11676;BME280;5894;42.768;23.404;2023-05-03T06:43:14;96080.44;;;11.52;100.00
11676;BME280;5894;42.768;23.404;2023-05-03T06:46:12;96091.28;;;11.50;100.00
11676;BME280;5894;42.768;23.404;2023-05-03T06:48:39;96079.75;;;11.60;100.00
11676;BME280;5894;42.768;23.404;2023-05-03T06:51:06;96074.25;;;11.56;100.00
11676;BME280;5894;42.768;23.404;2023-05-03T07:08:34;96038.69;;;12.26;98.08
11676;BME280;5894;42.768;23.404;2023-05-03T07:11:01;96036.75;;;12.18;98.60
11676;BME280;5894;42.768;23.404;2023-05-03T07:13:28;96032.50;;;12.08;100.00
11676;BME280;5894;42.768;23.404;2023-05-03T07:15:56;96029.97;;;12.03;100.00
11676;BME280;5894;42.768;23.404;2023-05-03T07:18:23;96031.41;;;12.09;100.00
11676;BME280;5894;42.768;23.404;2023-05-03T07:20:50;96032.63;;;12.03;100.00
11676;BME280;5894;42.768;23.404;2023-05-03T07:23:17;96044.56;;;12.00;98.58
11676;BME280;5894;42.768;23.404;2023-05-03T07:25:45;96052.22;;;11.88;100.00
11676;BME280;5894;42.768;23.404;2023-05-03T07:28:13;96055.84;;;11.92;100.00
11676;BME280;5894;42.768;23.404;2023-05-03T07:30:40;96067.72;;;11.81;100.00
11676;BME280;5894;42.768;23.404;2023-05-03T07:33:07;96064.56;;;11.79;100.00
11676;BME280;5894;42.768;23.404;2023-05-03T07:35:34;96065.34;;;11.80;100.00
11676;BME280;5894;42.768;23.404;2023-05-03T07:38:02;96053.00;;;11.89;100.00
11676;BME280;5894;42.768;23.404;2023-05-03T07:40:29;96053.88;;;11.98;100.00
11676;BME280;5894;42.768;23.404;2023-05-03T07:42:59;96059.84;;;12.03;100.00
11676;BME280;5894;42.768;23.404;2023-05-03T07:45:26;96052.75;;;12.12;100.00
11676;BME280;5894;42.768;23.404;2023-05-03T07:47:54;96057.03;;;12.22;100.00
11676;BME280;5894;42.768;23.404;2023-05-03T07:50:21;96051.91;;;12.26;99.77
11676;BME280;5894;42.768;23.404;2023-05-03T07:52:48;96042.31;;;12.30;98.37
11676;BME280;5894;42.768;23.404;2023-05-03T07:55:16;96038.00;;;12.34;99.15
11676;BME280;5894;42.768;23.404;2023-05-03T07:57:44;96034.72;;;12.37;97.52
11676;BME280;5894;42.768;23.404;2023-05-03T08:00:13;96024.34;;;12.40;97.25
11676;BME280;5894;42.768;23.404;2023-05-03T08:02:42;96024.81;;;12.42;96.22
11676;BME280;5894;42.768;23.404;2023-05-03T08:05:10;96030.34;;;12.55;95.02
11676;BME280;5894;42.768;23.404;2023-05-03T08:07:39;96038.75;;;12.57;95.16
11676;BME280;5894;42.768;23.404;2023-05-03T08:10:07;96045.25;;;12.50;94.94
11676;BME280;5894;42.768;23.404;2023-05-03T08:12:35;96022.59;;;12.36;96.75
11676;BME280;5894;42.768;23.404;2023-05-03T08:15:02;96044.75;;;12.71;94.30
11676;BME280;5894;42.768;23.404;2023-05-03T08:17:39;95992.00;;;12.43;96.76
11676;BME280;5894;42.768;23.404;2023-05-03T08:20:07;96042.81;;;12.85;97.61
11676;BME280;5894;42.768;23.404;2023-05-03T08:22:35;96045.34;;;12.90;99.53
11676;BME280;5894;42.768;23.404;2023-05-03T08:25:02;96047.09;;;12.95;99.40
11676;BME280;5894;42.768;23.404;2023-05-03T08:27:30;96050.56;;;13.04;96.50
11676;BME280;5894;42.768;23.404;2023-05-03T08:29:58;96048.97;;;13.03;96.36
11676;BME280;5894;42.768;23.404;2023-05-03T08:32:26;96049.03;;;13.11;96.82
11676;BME280;5894;42.768;23.404;2023-05-03T08:34:56;96055.25;;;13.38;95.61
11676;BME280;5894;42.768;23.404;2023-05-03T08:37:23;96047.81;;;13.57;95.38
11676;BME280;5894;42.768;23.404;2023-05-03T08:39:50;96044.59;;;13.77;94.48
11676;BME280;5894;42.768;23.404;2023-05-03T08:42:17;96046.78;;;13.92;93.13
11676;BME280;5894;42.768;23.404;2023-05-03T08:44:46;96046.81;;;14.10;92.25
11676;BME280;5894;42.768;23.404;2023-05-03T08:47:14;96042.44;;;14.22;91.08
11676;BME280;5894;42.768;23.404;2023-05-03T09:13:03;96040.28;;;16.44;74.84
11676;BME280;5894;42.768;23.404;2023-05-03T09:15:31;96043.44;;;16.25;77.67
11676;BME280;5894;42.768;23.404;2023-05-03T09:18:12;96032.66;;;16.01;77.18
11676;BME280;5894;42.768;23.404;2023-05-03T09:20:40;96048.91;;;16.08;78.15
11676;BME280;5894;42.768;23.404;2023-05-03T09:23:15;96030.91;;;16.05;79.50
11676;BME280;5894;42.768;23.404;2023-05-03T09:25:44;96023.25;;;16.03;78.15
11676;BME280;5894;42.768;23.404;2023-05-03T09:28:13;96018.72;;;16.04;78.68
11676;BME280;5894;42.768;23.404;2023-05-03T09:30:41;95976.69;;;15.76;77.79
11676;BME280;5894;42.768;23.404;2023-05-03T09:33:09;96009.63;;;16.05;81.00
11676;BME280;5894;42.768;23.404;2023-05-03T09:35:36;96006.50;;;16.03;78.36
11676;BME280;5894;42.768;23.404;2023-05-03T09:38:03;95997.19;;;15.97;80.34
11676;BME280;5894;42.768;23.404;2023-05-03T09:40:30;95998.72;;;15.98;79.66
11676;BME280;5894;42.768;23.404;2023-05-03T09:43:04;95998.97;;;16.05;78.46
11676;BME280;5894;42.768;23.404;2023-05-03T09:45:34;96001.88;;;16.12;78.35
11676;BME280;5894;42.768;23.404;2023-05-03T09:48:01;95974.97;;;16.13;78.66
11676;BME280;5894;42.768;23.404;2023-05-03T09:50:30;95981.38;;;16.33;78.84
11676;BME280;5894;42.768;23.404;2023-05-03T09:53:01;95968.19;;;16.37;76.58
11676;BME280;5894;42.768;23.404;2023-05-03T09:55:33;95973.97;;;16.39;76.64
11676;BME280;5894;42.768;23.404;2023-05-03T09:58:01;95973.63;;;16.40;75.25
11676;BME280;5894;42.768;23.404;2023-05-03T10:00:35;95967.22;;;16.53;77.29
11676;BME280;5894;42.768;23.404;2023-05-03T10:03:06;95960.34;;;16.52;77.42
11676;BME280;5894;42.768;23.404;2023-05-03T10:05:38;95962.53;;;16.71;79.26
11676;BME280;5894;42.768;23.404;2023-05-03T10:08:06;95937.44;;;16.72;76.38
11676;BME280;5894;42.768;23.404;2023-05-03T10:10:38;95960.00;;;16.87;74.58
11676;BME280;5894;42.768;23.404;2023-05-03T10:13:07;95960.13;;;17.03;75.12
11676;BME280;5894;42.768;23.404;2023-05-03T10:15:36;95948.59;;;17.11;73.88
11676;BME280;5894;42.768;23.404;2023-05-03T10:18:06;95959.47;;;17.30;73.50
11676;BME280;5894;42.768;23.404;2023-05-03T10:20:38;95945.13;;;17.35;73.04
11676;BME280;5894;42.768;23.404;2023-05-03T10:23:07;95964.47;;;17.44;73.24
11676;BME280;5894;42.768;23.404;2023-05-03T10:25:35;95957.66;;;17.58;75.48
11676;BME280;5894;42.768;23.404;2023-05-03T10:28:04;95957.56;;;17.67;70.09
11676;BME280;5894;42.768;23.404;2023-05-03T10:30:32;95951.88;;;17.69;71.01
11676;BME280;5894;42.768;23.404;2023-05-03T10:33:31;95941.09;;;17.77;70.29
11676;BME280;5894;42.768;23.404;2023-05-03T10:36:04;95940.88;;;17.70;68.74
11676;BME280;5894;42.768;23.404;2023-05-03T10:38:31;95929.44;;;17.57;69.18
11676;BME280;5894;42.768;23.404;2023-05-03T10:40:58;95922.09;;;17.67;69.90
11676;BME280;5894;42.768;23.404;2023-05-03T10:43:41;95922.03;;;17.63;72.69
11676;BME280;5894;42.768;23.404;2023-05-03T10:49:15;95907.88;;;17.75;72.47
11676;BME280;5894;42.768;23.404;2023-05-03T10:51:42;95912.06;;;17.76;78.07
11676;BME280;5894;42.768;23.404;2023-05-03T10:54:10;95917.06;;;17.77;77.85
11676;BME280;5894;42.768;23.404;2023-05-03T10:56:51;95926.88;;;17.73;74.92
11676;BME280;5894;42.768;23.404;2023-05-03T10:59:19;95923.09;;;17.74;74.88
11676;BME280;5894;42.768;23.404;2023-05-03T11:01:50;95914.88;;;17.67;75.43
11676;BME280;5894;42.768;23.404;2023-05-03T11:04:29;95895.88;;;17.56;76.39
11676;BME280;5894;42.768;23.404;2023-05-03T11:06:58;95931.63;;;17.80;76.11
11676;BME280;5894;42.768;23.404;2023-05-03T11:09:30;95922.03;;;17.91;77.54
11676;BME280;5894;42.768;23.404;2023-05-03T11:11:57;95916.19;;;17.85;73.67
11676;BME280;5894;42.768;23.404;2023-05-03T11:14:24;95917.97;;;17.81;74.81
11676;BME280;5894;42.768;23.404;2023-05-03T11:16:51;95918.59;;;17.90;78.78
11676;BME280;5894;42.768;23.404;2023-05-03T11:19:23;95916.38;;;17.92;76.47
11676;BME280;5894;42.768;23.404;2023-05-03T11:21:51;95899.91;;;17.90;76.45
11676;BME280;5894;42.768;23.404;2023-05-03T11:24:18;95893.75;;;18.02;78.03
11676;BME280;5894;42.768;23.404;2023-05-03T11:26:45;95915.81;;;17.87;75.99
11676;BME280;5894;42.768;23.404;2023-05-03T11:29:14;95915.81;;;17.87;75.91
11676;BME280;5894;42.768;23.404;2023-05-03T11:56:35;95890.94;;;18.11;72.33
11676;BME280;5894;42.768;23.404;2023-05-03T11:59:09;95894.69;;;17.94;72.54
11676;BME280;5894;42.768;23.404;2023-05-03T12:01:42;95884.88;;;17.98;73.98
11676;BME280;5894;42.768;23.404;2023-05-03T12:04:18;95877.03;;;17.89;74.94
11676;BME280;5894;42.768;23.404;2023-05-03T12:06:48;95885.31;;;17.72;74.07
11676;BME280;5894;42.768;23.404;2023-05-03T12:09:23;95892.09;;;17.70;76.91
11676;BME280;5894;42.768;23.404;2023-05-03T12:11:57;95871.53;;;17.58;76.50
11676;BME280;5894;42.768;23.404;2023-05-03T12:14:27;95869.22;;;17.56;78.05
11676;BME280;5894;42.768;23.404;2023-05-03T12:17:08;95888.53;;;17.66;79.30
11676;BME280;5894;42.768;23.404;2023-05-03T12:19:40;95865.88;;;17.72;77.94
11676;BME280;5894;42.768;23.404;2023-05-03T12:22:18;95860.50;;;17.84;80.07
11676;BME280;5894;42.768;23.404;2023-05-03T12:24:48;95862.16;;;17.76;75.59
11676;BME280;5894;42.768;23.404;2023-05-03T12:27:22;95874.03;;;17.91;76.51
11676;BME280;5894;42.768;23.404;2023-05-03T12:29:53;95864.00;;;17.88;74.70
11676;BME280;5894;42.768;23.404;2023-05-03T12:32:27;95861.28;;;17.84;74.49
11676;BME280;5894;42.768;23.404;2023-05-03T12:34:56;95847.22;;;17.87;75.35
11676;BME280;5894;42.768;23.404;2023-05-03T12:37:29;95859.47;;;17.88;72.54
11676;BME280;5894;42.768;23.404;2023-05-03T12:39:58;95865.50;;;17.85;75.74
11676;BME280;5894;42.768;23.404;2023-05-03T12:42:30;95869.75;;;17.74;74.00
11676;BME280;5894;42.768;23.404;2023-05-03T12:44:58;95863.34;;;17.63;73.34
11676;BME280;5894;42.768;23.404;2023-05-03T12:47:30;95866.44;;;17.65;74.96
11676;BME280;5894;42.768;23.404;2023-05-03T12:50:06;95845.81;;;17.38;75.52
11676;BME280;5894;42.768;23.404;2023-05-03T12:52:36;95855.50;;;17.30;77.08
11676;BME280;5894;42.768;23.404;2023-05-03T12:55:05;95838.22;;;17.12;79.07
11676;BME280;5894;42.768;23.404;2023-05-03T12:57:40;95841.31;;;17.14;79.49
11676;BME280;5894;42.768;23.404;2023-05-03T13:00:12;95847.81;;;16.88;80.88
11676;BME280;5894;42.768;23.404;2023-05-03T13:02:50;95851.34;;;16.80;83.11
11676;BME280;5894;42.768;23.404;2023-05-03T13:05:18;95852.59;;;16.71;82.43
11676;BME280;5894;42.768;23.404;2023-05-03T13:07:49;95848.03;;;16.71;83.49
11676;BME280;5894;42.768;23.404;2023-05-03T13:10:27;95853.00;;;16.61;85.28
11676;BME280;5894;42.768;23.404;2023-05-03T13:13:07;95851.41;;;16.35;89.29
11676;BME280;5894;42.768;23.404;2023-05-03T13:15:39;95854.16;;;16.27;92.16
11676;BME280;5894;42.768;23.404;2023-05-03T13:18:08;95848.41;;;16.37;92.71
11676;BME280;5894;42.768;23.404;2023-05-03T13:20:39;95845.63;;;16.33;90.49
11676;BME280;5894;42.768;23.404;2023-05-03T13:23:10;95853.72;;;16.25;91.08
11676;BME280;5894;42.768;23.404;2023-05-03T13:25:40;95858.22;;;16.12;93.95
11676;BME280;5894;42.768;23.404;2023-05-03T13:28:10;95862.84;;;16.03;97.12
11676;BME280;5894;42.768;23.404;2023-05-03T13:30:42;95847.31;;;15.93;100.00
11676;BME280;5894;42.768;23.404;2023-05-03T13:33:16;95866.34;;;15.83;100.00
11676;BME280;5894;42.768;23.404;2023-05-03T13:35:52;95875.88;;;15.84;100.00
11676;BME280;5894;42.768;23.404;2023-05-03T13:38:26;95884.53;;;15.51;100.00
11676;BME280;5894;42.768;23.404;2023-05-03T13:41:12;95889.00;;;15.38;100.00
11676;BME280;5894;42.768;23.404;2023-05-03T13:43:51;95883.28;;;15.07;100.00
11676;BME280;5894;42.768;23.404;2023-05-03T13:49:14;95900.66;;;14.96;100.00
11676;BME280;5894;42.768;23.404;2023-05-03T13:51:45;95902.91;;;14.85;100.00
11676;BME280;5894;42.768;23.404;2023-05-03T13:54:15;95903.78;;;14.68;100.00
11676;BME280;5894;42.768;23.404;2023-05-03T13:57:07;95902.06;;;14.64;100.00
11676;BME280;5894;42.768;23.404;2023-05-03T14:03:04;95903.81;;;14.60;100.00
11676;BME280;5894;42.768;23.404;2023-05-03T14:08:47;95900.09;;;14.44;100.00
11676;BME280;5894;42.768;23.404;2023-05-03T14:11:43;95901.50;;;14.50;100.00
11676;BME280;5894;42.768;23.404;2023-05-03T14:14:33;95905.41;;;14.52;100.00
11676;BME280;5894;42.768;23.404;2023-05-03T14:18:14;95920.50;;;14.60;100.00
11676;BME280;5894;42.768;23.404;2023-05-03T14:21:22;95911.63;;;14.56;100.00
11676;BME280;5894;42.768;23.404;2023-05-03T14:24:15;95909.91;;;14.60;100.00
11676;BME280;5894;42.768;23.404;2023-05-03T14:27:08;95904.25;;;14.71;100.00
11676;BME280;5894;42.768;23.404;2023-05-03T14:29:51;95907.66;;;14.71;100.00